sensor_id;sensor_type;location;lat;lon;timestamp;pressure;altitude;pressure_sealevel;temperature;humidity
40920;BME280;26652;50.280;19.026;2022-08-03T00:01:43;98671.22;;;18.44;100.00
40920;BME280;26652;50.280;19.026;2022-08-03T00:03:49;98665.59;;;18.36;100.00
40920;BME280;26652;50.280;19.026;2022-08-03T00:06:06;98668.94;;;18.36;100.00
40920;BME280;26652;50.280;19.026;2022-08-03T00:08:28;98666.50;;;18.41;100.00
40920;BME280;26652;50.280;19.026;2022-08-03T00:10:35;98668.72;;;18.38;100.00
40920;BME280;26652;50.280;19.026;2022-08-03T00:12:57;98666.16;;;18.38;100.00
40920;BME280;26652;50.280;19.026;2022-08-03T00:15:12;98672.69;;;18.52;100.00
40920;BME280;26652;50.280;19.026;2022-08-03T00:17:21;98659.87;;;18.34;100.00
40920;BME280;26652;50.280;19.026;2022-08-03T00:19:38;98661.88;;;18.32;100.00
40920;BME280;26652;50.280;19.026;2022-08-03T00:21:51;98655.72;;;18.33;100.00
40920;BME280;26652;50.280;19.026;2022-08-03T00:24:02;98656.19;;;18.41;100.00
40920;BME280;26652;50.280;19.026;2022-08-03T00:26:22;98658.53;;;18.43;100.00
40920;BME280;26652;50.280;19.026;2022-08-03T00:29:02;98658.97;;;18.40;100.00
40920;BME280;26652;50.280;19.026;2022-08-03T00:31:24;98667.25;;;18.30;100.00
40920;BME280;26652;50.280;19.026;2022-08-03T00:33:57;98667.91;;;18.25;100.00
40920;BME280;26652;50.280;19.026;2022-08-03T00:36:26;98661.84;;;18.20;100.00
40920;BME280;26652;50.280;19.026;2022-08-03T00:38:45;98660.06;;;18.20;100.00
40920;BME280;26652;50.280;19.026;2022-08-03T00:41:12;98661.06;;;18.19;100.00
40920;BME280;26652;50.280;19.026;2022-08-03T00:43:41;98657.72;;;18.19;100.00
40920;BME280;26652;50.280;19.026;2022-08-03T00:46:14;98667.00;;;18.20;100.00
40920;BME280;26652;50.280;19.026;2022-08-03T00:48:38;98669.81;;;18.18;100.00
40920;BME280;26652;50.280;19.026;2022-08-03T00:51:01;98664.44;;;18.20;100.00
40920;BME280;26652;50.280;19.026;2022-08-03T00:53:24;98664.66;;;18.18;100.00
40920;BME280;26652;50.280;19.026;2022-08-03T00:55:44;98675.97;;;18.17;100.00
40920;BME280;26652;50.280;19.026;2022-08-03T00:58:10;98672.03;;;18.15;100.00
40920;BME280;26652;50.280;19.026;2022-08-03T01:00:40;98674.19;;;18.18;100.00
40920;BME280;26652;50.280;19.026;2022-08-03T01:02:50;98668.44;;;18.16;100.00
40920;BME280;26652;50.280;19.026;2022-08-03T01:04:59;98668.91;;;18.13;100.00
40920;BME280;26652;50.280;19.026;2022-08-03T01:16:02;98668.09;;;18.12;100.00
40920;BME280;26652;50.280;19.026;2022-08-03T01:18:29;98674.53;;;18.21;100.00
40920;BME280;26652;50.280;19.026;2022-08-03T01:20:54;98673.69;;;18.09;100.00
40920;BME280;26652;50.280;19.026;2022-08-03T01:26:51;98679.59;;;17.98;100.00
40920;BME280;26652;50.280;19.026;2022-08-03T01:29:43;98677.28;;;17.78;100.00
40920;BME280;26652;50.280;19.026;2022-08-03T01:32:30;98683.00;;;17.80;100.00
40920;BME280;26652;50.280;19.026;2022-08-03T01:35:08;98667.97;;;17.77;100.00
40920;BME280;26652;50.280;19.026;2022-08-03T01:37:46;98676.47;;;17.96;100.00
40920;BME280;26652;50.280;19.026;2022-08-03T01:40:07;98668.19;;;17.76;100.00
40920;BME280;26652;50.280;19.026;2022-08-03T01:42:29;98670.31;;;17.67;100.00
40920;BME280;26652;50.280;19.026;2022-08-03T01:44:51;98673.34;;;17.76;100.00
40920;BME280;26652;50.280;19.026;2022-08-03T01:47:12;98671.62;;;17.70;100.00
40920;BME280;26652;50.280;19.026;2022-08-03T01:49:39;98679.72;;;17.73;100.00
40920;BME280;26652;50.280;19.026;2022-08-03T01:52:00;98672.09;;;17.67;100.00
40920;BME280;26652;50.280;19.026;2022-08-03T01:54:24;98658.75;;;17.70;100.00
40920;BME280;26652;50.280;19.026;2022-08-03T01:56:50;98664.56;;;17.65;100.00
40920;BME280;26652;50.280;19.026;2022-08-03T01:59:11;98661.91;;;17.72;100.00
40920;BME280;26652;50.280;19.026;2022-08-03T02:01:36;98659.78;;;17.69;100.00
40920;BME280;26652;50.280;19.026;2022-08-03T02:03:58;98656.97;;;17.70;100.00
40920;BME280;26652;50.280;19.026;2022-08-03T02:06:20;98658.13;;;17.74;100.00
40920;BME280;26652;50.280;19.026;2022-08-03T02:08:44;98650.19;;;17.76;100.00
40920;BME280;26652;50.280;19.026;2022-08-03T02:11:07;98654.88;;;17.79;100.00
40920;BME280;26652;50.280;19.026;2022-08-03T02:13:34;98653.41;;;17.71;100.00
40920;BME280;26652;50.280;19.026;2022-08-03T02:15:54;98646.59;;;17.77;100.00
40920;BME280;26652;50.280;19.026;2022-08-03T02:18:18;98650.75;;;17.78;100.00
40920;BME280;26652;50.280;19.026;2022-08-03T02:20:48;98653.97;;;17.73;100.00
40920;BME280;26652;50.280;19.026;2022-08-03T02:22:59;98643.09;;;17.71;100.00
40920;BME280;26652;50.280;19.026;2022-08-03T02:25:12;98650.25;;;17.69;100.00
40920;BME280;26652;50.280;19.026;2022-08-03T02:27:34;98651.00;;;17.58;100.00
40920;BME280;26652;50.280;19.026;2022-08-03T02:30:03;98648.06;;;17.54;100.00
40920;BME280;26652;50.280;19.026;2022-08-03T02:32:32;98647.78;;;17.44;100.00
40920;BME280;26652;50.280;19.026;2022-08-03T02:34:53;98653.50;;;17.46;100.00
40920;BME280;26652;50.280;19.026;2022-08-03T02:37:16;98653.22;;;17.54;100.00
40920;BME280;26652;50.280;19.026;2022-08-03T02:39:36;98664.00;;;17.63;100.00
40920;BME280;26652;50.280;19.026;2022-08-03T02:42:00;98654.91;;;17.60;100.00
40920;BME280;26652;50.280;19.026;2022-08-03T02:44:25;98657.72;;;17.59;100.00
40920;BME280;26652;50.280;19.026;2022-08-03T02:46:52;98650.72;;;17.66;100.00
40920;BME280;26652;50.280;19.026;2022-08-03T02:49:17;98655.19;;;17.71;100.00
40920;BME280;26652;50.280;19.026;2022-08-03T02:51:47;98654.53;;;17.75;100.00
40920;BME280;26652;50.280;19.026;2022-08-03T02:54:32;98654.00;;;17.55;100.00
40920;BME280;26652;50.280;19.026;2022-08-03T02:56:42;98653.44;;;17.53;100.00
40920;BME280;26652;50.280;19.026;2022-08-03T02:58:52;98660.44;;;17.46;100.00
40920;BME280;26652;50.280;19.026;2022-08-03T03:01:13;98655.78;;;17.36;100.00
40920;BME280;26652;50.280;19.026;2022-08-03T03:03:33;98666.66;;;17.20;100.00
40920;BME280;26652;50.280;19.026;2022-08-03T03:05:53;98662.72;;;17.36;100.00
40920;BME280;26652;50.280;19.026;2022-08-03T03:08:23;98668.94;;;17.46;100.00
40920;BME280;26652;50.280;19.026;2022-08-03T03:10:37;98655.44;;;17.51;100.00
40920;BME280;26652;50.280;19.026;2022-08-03T03:12:52;98655.22;;;17.52;100.00
40920;BME280;26652;50.280;19.026;2022-08-03T03:15:13;98664.78;;;17.63;100.00
40920;BME280;26652;50.280;19.026;2022-08-03T03:17:37;98670.88;;;17.51;100.00
40920;BME280;26652;50.280;19.026;2022-08-03T03:19:58;98671.09;;;17.49;100.00
40920;BME280;26652;50.280;19.026;2022-08-03T03:22:18;98669.44;;;17.55;100.00
40920;BME280;26652;50.280;19.026;2022-08-03T03:24:40;98665.44;;;17.41;100.00
40920;BME280;26652;50.280;19.026;2022-08-03T03:27:00;98673.09;;;17.47;100.00
40920;BME280;26652;50.280;19.026;2022-08-03T03:29:21;98669.88;;;17.33;100.00
40920;BME280;26652;50.280;19.026;2022-08-03T03:31:42;98672.81;;;17.37;100.00
40920;BME280;26652;50.280;19.026;2022-08-03T03:34:05;98681.44;;;17.24;100.00
40920;BME280;26652;50.280;19.026;2022-08-03T03:36:34;98682.37;;;17.30;100.00
40920;BME280;26652;50.280;19.026;2022-08-03T03:38:57;98681.59;;;17.29;100.00
40920;BME280;26652;50.280;19.026;2022-08-03T03:41:38;98684.16;;;17.29;100.00
40920;BME280;26652;50.280;19.026;2022-08-03T03:43:50;98683.44;;;17.22;100.00
40920;BME280;26652;50.280;19.026;2022-08-03T03:46:12;98680.66;;;17.24;100.00
40920;BME280;26652;50.280;19.026;2022-08-03T03:48:40;98673.81;;;17.36;100.00
40920;BME280;26652;50.280;19.026;2022-08-03T03:51:13;98684.03;;;17.43;100.00
40920;BME280;26652;50.280;19.026;2022-08-03T03:53:34;98685.88;;;17.54;100.00
40920;BME280;26652;50.280;19.026;2022-08-03T03:55:58;98689.97;;;17.61;100.00
40920;BME280;26652;50.280;19.026;2022-08-03T03:58:20;98686.00;;;17.77;100.00
40920;BME280;26652;50.280;19.026;2022-08-03T04:00:47;98686.94;;;17.83;100.00
40920;BME280;26652;50.280;19.026;2022-08-03T04:03:11;98685.50;;;17.87;100.00
40920;BME280;26652;50.280;19.026;2022-08-03T04:05:43;98701.03;;;17.80;100.00
40920;BME280;26652;50.280;19.026;2022-08-03T04:08:28;98690.16;;;17.78;100.00
40920;BME280;26652;50.280;19.026;2022-08-03T04:11:35;98699.09;;;17.76;100.00
40920;BME280;26652;50.280;19.026;2022-08-03T04:16:29;98696.44;;;17.82;100.00
40920;BME280;26652;50.280;19.026;2022-08-03T04:18:58;98694.50;;;17.78;100.00
40920;BME280;26652;50.280;19.026;2022-08-03T04:21:21;98694.66;;;17.83;100.00
40920;BME280;26652;50.280;19.026;2022-08-03T04:23:52;98701.50;;;17.89;100.00
40920;BME280;26652;50.280;19.026;2022-08-03T04:26:02;98698.28;;;17.93;100.00
40920;BME280;26652;50.280;19.026;2022-08-03T04:28:15;98701.91;;;18.04;100.00
40920;BME280;26652;50.280;19.026;2022-08-03T04:30:38;98702.03;;;18.09;100.00
40920;BME280;26652;50.280;19.026;2022-08-03T04:33:03;98707.19;;;18.09;100.00
40920;BME280;26652;50.280;19.026;2022-08-03T04:35:26;98702.88;;;18.21;100.00
40920;BME280;26652;50.280;19.026;2022-08-03T04:37:49;98710.06;;;18.31;100.00
40920;BME280;26652;50.280;19.026;2022-08-03T04:40:14;98716.12;;;18.37;100.00
40920;BME280;26652;50.280;19.026;2022-08-03T04:42:39;98713.81;;;18.47;100.00
40920;BME280;26652;50.280;19.026;2022-08-03T04:45:00;98720.56;;;18.59;100.00
40920;BME280;26652;50.280;19.026;2022-08-03T04:47:23;98719.69;;;18.66;100.00
40920;BME280;26652;50.280;19.026;2022-08-03T04:49:43;98723.84;;;18.78;100.00
40920;BME280;26652;50.280;19.026;2022-08-03T04:52:08;98719.34;;;19.20;100.00
40920;BME280;26652;50.280;19.026;2022-08-03T04:54:29;98718.56;;;19.83;100.00
40920;BME280;26652;50.280;19.026;2022-08-03T04:56:53;98725.47;;;20.51;98.75
40920;BME280;26652;50.280;19.026;2022-08-03T04:59:16;98722.16;;;21.45;91.94
40920;BME280;26652;50.280;19.026;2022-08-03T05:01:40;98718.97;;;21.81;87.61
40920;BME280;26652;50.280;19.026;2022-08-03T05:04:03;98715.03;;;21.35;89.76
40920;BME280;26652;50.280;19.026;2022-08-03T05:06:25;98724.09;;;21.16;91.46
40920;BME280;26652;50.280;19.026;2022-08-03T05:08:58;98721.75;;;20.98;92.71
40920;BME280;26652;50.280;19.026;2022-08-03T05:11:38;98719.56;;;20.89;93.42
40920;BME280;26652;50.280;19.026;2022-08-03T05:14:15;98723.44;;;20.70;95.58
40920;BME280;26652;50.280;19.026;2022-08-03T05:16:28;98725.31;;;20.75;95.33
40920;BME280;26652;50.280;19.026;2022-08-03T05:18:40;98722.38;;;20.38;98.89
40920;BME280;26652;50.280;19.026;2022-08-03T05:21:00;98724.62;;;20.46;99.01
40920;BME280;26652;50.280;19.026;2022-08-03T05:23:29;98718.81;;;20.39;98.28
40920;BME280;26652;50.280;19.026;2022-08-03T05:25:48;98719.00;;;20.37;97.86
40920;BME280;26652;50.280;19.026;2022-08-03T05:28:00;98717.66;;;20.35;97.15
40920;BME280;26652;50.280;19.026;2022-08-03T05:30:27;98725.03;;;20.26;97.18
40920;BME280;26652;50.280;19.026;2022-08-03T05:32:56;98722.53;;;20.31;97.13
40920;BME280;26652;50.280;19.026;2022-08-03T05:35:21;98719.13;;;20.14;98.88
40920;BME280;26652;50.280;19.026;2022-08-03T05:37:42;98724.84;;;20.16;98.39
40920;BME280;26652;50.280;19.026;2022-08-03T05:40:11;98724.25;;;19.97;100.00
40920;BME280;26652;50.280;19.026;2022-08-03T05:42:36;98719.25;;;19.79;100.00
40920;BME280;26652;50.280;19.026;2022-08-03T05:45:02;98727.19;;;19.89;100.00
40920;BME280;26652;50.280;19.026;2022-08-03T05:47:40;98719.91;;;19.86;100.00
40920;BME280;26652;50.280;19.026;2022-08-03T05:50:14;98723.81;;;19.88;100.00
40920;BME280;26652;50.280;19.026;2022-08-03T05:52:32;98724.84;;;19.87;100.00
40920;BME280;26652;50.280;19.026;2022-08-03T05:54:44;98718.97;;;19.92;100.00
40920;BME280;26652;50.280;19.026;2022-08-03T05:57:06;98720.91;;;19.85;100.00
40920;BME280;26652;50.280;19.026;2022-08-03T05:59:31;98727.38;;;19.99;100.00
40920;BME280;26652;50.280;19.026;2022-08-03T06:01:54;98732.81;;;20.14;100.00
40920;BME280;26652;50.280;19.026;2022-08-03T06:04:17;98729.97;;;20.28;99.79
40920;BME280;26652;50.280;19.026;2022-08-03T06:06:46;98729.34;;;20.37;99.78
40920;BME280;26652;50.280;19.026;2022-08-03T06:09:27;98733.31;;;20.40;98.79
40920;BME280;26652;50.280;19.026;2022-08-03T06:11:40;98728.56;;;20.37;96.77
40920;BME280;26652;50.280;19.026;2022-08-03T06:14:03;98735.19;;;20.44;97.43
40920;BME280;26652;50.280;19.026;2022-08-03T06:16:26;98732.59;;;20.44;97.41
40920;BME280;26652;50.280;19.026;2022-08-03T06:18:49;98740.12;;;20.46;98.24
40920;BME280;26652;50.280;19.026;2022-08-03T06:21:25;98730.88;;;20.50;98.24
40920;BME280;26652;50.280;19.026;2022-08-03T06:23:44;98743.41;;;20.41;99.13
40920;BME280;26652;50.280;19.026;2022-08-03T06:26:04;98748.44;;;20.48;99.93
40920;BME280;26652;50.280;19.026;2022-08-03T06:28:26;98750.19;;;20.59;99.57
40920;BME280;26652;50.280;19.026;2022-08-03T06:30:53;98744.16;;;20.70;99.00
40920;BME280;26652;50.280;19.026;2022-08-03T06:33:15;98744.53;;;20.79;96.68
40920;BME280;26652;50.280;19.026;2022-08-03T06:35:35;98751.87;;;20.87;96.63
40920;BME280;26652;50.280;19.026;2022-08-03T06:37:58;98742.16;;;20.94;97.03
40920;BME280;26652;50.280;19.026;2022-08-03T06:40:28;98749.91;;;21.11;96.02
40920;BME280;26652;50.280;19.026;2022-08-03T06:42:48;98754.78;;;21.24;95.94
40920;BME280;26652;50.280;19.026;2022-08-03T06:45:11;98754.69;;;21.36;95.81
40920;BME280;26652;50.280;19.026;2022-08-03T06:47:35;98758.34;;;21.40;93.68
40920;BME280;26652;50.280;19.026;2022-08-03T06:49:55;98752.25;;;21.29;91.22
40920;BME280;26652;50.280;19.026;2022-08-03T06:52:15;98751.06;;;21.37;91.70
40920;BME280;26652;50.280;19.026;2022-08-03T06:54:38;98760.06;;;21.51;90.93
40920;BME280;26652;50.280;19.026;2022-08-03T06:57:05;98762.22;;;21.59;88.20
40920;BME280;26652;50.280;19.026;2022-08-03T06:59:39;98760.56;;;21.70;88.78
40920;BME280;26652;50.280;19.026;2022-08-03T07:02:02;98762.50;;;21.84;87.10
40920;BME280;26652;50.280;19.026;2022-08-03T07:04:36;98750.69;;;21.94;87.38
40920;BME280;26652;50.280;19.026;2022-08-03T07:06:56;98758.16;;;22.12;86.86
40920;BME280;26652;50.280;19.026;2022-08-03T07:09:23;98754.16;;;22.26;86.74
40920;BME280;26652;50.280;19.026;2022-08-03T07:11:52;98757.16;;;22.40;82.65
40920;BME280;26652;50.280;19.026;2022-08-03T07:14:27;98753.63;;;22.51;81.87
40920;BME280;26652;50.280;19.026;2022-08-03T07:17:01;98753.25;;;22.69;80.20
40920;BME280;26652;50.280;19.026;2022-08-03T07:19:29;98752.38;;;22.91;80.07
40920;BME280;26652;50.280;19.026;2022-08-03T07:22:02;98754.31;;;23.10;79.63
40920;BME280;26652;50.280;19.026;2022-08-03T07:24:25;98748.19;;;23.32;79.68
40920;BME280;26652;50.280;19.026;2022-08-03T07:26:48;98760.75;;;23.50;77.43
40920;BME280;26652;50.280;19.026;2022-08-03T07:29:11;98745.00;;;23.67;77.28
40920;BME280;26652;50.280;19.026;2022-08-03T07:31:33;98756.50;;;23.81;74.08
40920;BME280;26652;50.280;19.026;2022-08-03T07:33:56;98753.16;;;23.91;72.93
40920;BME280;26652;50.280;19.026;2022-08-03T07:36:19;98758.87;;;24.03;75.73
40920;BME280;26652;50.280;19.026;2022-08-03T07:38:42;98750.59;;;24.16;72.53
40920;BME280;26652;50.280;19.026;2022-08-03T07:41:20;98754.03;;;24.32;70.79
40920;BME280;26652;50.280;19.026;2022-08-03T07:43:41;98755.09;;;24.56;70.68
40920;BME280;26652;50.280;19.026;2022-08-03T07:46:07;98756.13;;;24.65;70.23
40920;BME280;26652;50.280;19.026;2022-08-03T07:48:29;98753.78;;;24.74;69.11
40920;BME280;26652;50.280;19.026;2022-08-03T07:50:57;98747.00;;;24.68;69.24
40920;BME280;26652;50.280;19.026;2022-08-03T07:53:20;98753.78;;;24.79;68.80
40920;BME280;26652;50.280;19.026;2022-08-03T07:55:43;98752.47;;;24.92;67.98
40920;BME280;26652;50.280;19.026;2022-08-03T07:58:10;98755.03;;;25.12;66.17
40920;BME280;26652;50.280;19.026;2022-08-03T08:00:39;98757.38;;;25.19;67.56
40920;BME280;26652;50.280;19.026;2022-08-03T08:03:02;98763.34;;;25.29;65.71
40920;BME280;26652;50.280;19.026;2022-08-03T08:05:26;98747.44;;;25.26;63.65
40920;BME280;26652;50.280;19.026;2022-08-03T08:07:46;98760.72;;;25.29;65.37
40920;BME280;26652;50.280;19.026;2022-08-03T08:10:10;98764.06;;;25.45;64.26
40920;BME280;26652;50.280;19.026;2022-08-03T08:12:32;98755.47;;;25.45;66.05
40920;BME280;26652;50.280;19.026;2022-08-03T08:14:59;98758.84;;;25.50;64.73
40920;BME280;26652;50.280;19.026;2022-08-03T08:17:26;98760.91;;;25.53;64.18
40920;BME280;26652;50.280;19.026;2022-08-03T08:19:55;98760.88;;;25.63;64.03
40920;BME280;26652;50.280;19.026;2022-08-03T08:22:24;98762.97;;;25.66;64.40
40920;BME280;26652;50.280;19.026;2022-08-03T08:24:46;98757.44;;;25.78;63.69
40920;BME280;26652;50.280;19.026;2022-08-03T08:27:09;98768.41;;;25.80;64.29
40920;BME280;26652;50.280;19.026;2022-08-03T08:29:29;98752.94;;;25.94;63.97
40920;BME280;26652;50.280;19.026;2022-08-03T08:31:58;98762.56;;;25.98;61.81
40920;BME280;26652;50.280;19.026;2022-08-03T08:34:28;98757.81;;;26.05;61.86
40920;BME280;26652;50.280;19.026;2022-08-03T08:37:06;98765.09;;;26.08;61.44
40920;BME280;26652;50.280;19.026;2022-08-03T08:39:29;98761.94;;;26.12;61.89
40920;BME280;26652;50.280;19.026;2022-08-03T08:41:55;98771.06;;;26.14;61.46
40920;BME280;26652;50.280;19.026;2022-08-03T08:44:19;98763.47;;;26.18;61.44
40920;BME280;26652;50.280;19.026;2022-08-03T08:46:48;98762.44;;;26.14;61.93
40920;BME280;26652;50.280;19.026;2022-08-03T08:49:10;98760.38;;;26.11;59.46
40920;BME280;26652;50.280;19.026;2022-08-03T08:51:32;98761.44;;;26.10;59.34
40920;BME280;26652;50.280;19.026;2022-08-03T08:53:56;98765.63;;;26.05;61.26
40920;BME280;26652;50.280;19.026;2022-08-03T08:56:24;98767.53;;;25.95;60.32
40920;BME280;26652;50.280;19.026;2022-08-03T08:58:53;98764.84;;;26.05;61.15
40920;BME280;26652;50.280;19.026;2022-08-03T09:01:18;98762.19;;;26.15;60.95
40920;BME280;26652;50.280;19.026;2022-08-03T09:03:38;98767.13;;;26.17;60.15
40920;BME280;26652;50.280;19.026;2022-08-03T09:06:00;98760.59;;;26.19;60.33
40920;BME280;26652;50.280;19.026;2022-08-03T09:08:21;98763.97;;;26.20;58.39
40920;BME280;26652;50.280;19.026;2022-08-03T09:10:44;98767.84;;;26.27;57.34
40920;BME280;26652;50.280;19.026;2022-08-03T09:13:13;98770.97;;;26.29;57.23
40920;BME280;26652;50.280;19.026;2022-08-03T09:15:43;98763.69;;;26.26;56.19
40920;BME280;26652;50.280;19.026;2022-08-03T09:18:11;98765.59;;;26.11;56.71
40920;BME280;26652;50.280;19.026;2022-08-03T09:20:40;98760.88;;;26.13;56.38
40920;BME280;26652;50.280;19.026;2022-08-03T09:23:11;98764.47;;;26.27;58.08
40920;BME280;26652;50.280;19.026;2022-08-03T09:25:42;98757.31;;;26.43;57.38
40920;BME280;26652;50.280;19.026;2022-08-03T09:28:15;98758.81;;;26.54;57.41
40920;BME280;26652;50.280;19.026;2022-08-03T09:30:26;98753.00;;;26.62;57.25
40920;BME280;26652;50.280;19.026;2022-08-03T09:32:37;98763.16;;;26.63;56.88
40920;BME280;26652;50.280;19.026;2022-08-03T09:35:04;98754.06;;;26.61;57.97
40920;BME280;26652;50.280;19.026;2022-08-03T09:37:27;98749.66;;;26.56;57.50
40920;BME280;26652;50.280;19.026;2022-08-03T09:40:07;98753.06;;;26.52;54.18
40920;BME280;26652;50.280;19.026;2022-08-03T09:42:27;98750.06;;;26.34;56.29
40920;BME280;26652;50.280;19.026;2022-08-03T09:45:00;98752.91;;;26.38;57.23
40920;BME280;26652;50.280;19.026;2022-08-03T09:47:31;98747.06;;;26.51;58.75
40920;BME280;26652;50.280;19.026;2022-08-03T09:50:01;98751.44;;;26.61;56.15
40920;BME280;26652;50.280;19.026;2022-08-03T09:52:21;98748.81;;;26.61;56.73
40920;BME280;26652;50.280;19.026;2022-08-03T09:54:54;98748.47;;;26.73;55.27
40920;BME280;26652;50.280;19.026;2022-08-03T09:57:26;98741.00;;;26.90;56.24
40920;BME280;26652;50.280;19.026;2022-08-03T09:59:47;98746.03;;;26.81;54.10
40920;BME280;26652;50.280;19.026;2022-08-03T10:02:26;98745.66;;;26.93;53.95
40920;BME280;26652;50.280;19.026;2022-08-03T10:04:47;98742.87;;;26.84;51.58
40920;BME280;26652;50.280;19.026;2022-08-03T10:07:12;98738.66;;;26.88;51.10
40920;BME280;26652;50.280;19.026;2022-08-03T10:09:58;98742.06;;;26.89;52.88
40920;BME280;26652;50.280;19.026;2022-08-03T10:12:19;98745.97;;;27.15;54.83
40920;BME280;26652;50.280;19.026;2022-08-03T10:14:57;98731.13;;;27.34;52.32
40920;BME280;26652;50.280;19.026;2022-08-03T10:17:21;98739.00;;;27.53;52.19
40920;BME280;26652;50.280;19.026;2022-08-03T10:19:47;98731.44;;;27.52;51.66
40920;BME280;26652;50.280;19.026;2022-08-03T10:22:25;98733.59;;;27.45;50.83
40920;BME280;26652;50.280;19.026;2022-08-03T10:25:07;98728.94;;;27.42;50.19
40920;BME280;26652;50.280;19.026;2022-08-03T10:27:39;98734.66;;;27.44;51.24
40920;BME280;26652;50.280;19.026;2022-08-03T10:30:03;98723.06;;;27.31;51.81
40920;BME280;26652;50.280;19.026;2022-08-03T10:32:29;98730.72;;;27.46;52.54
40920;BME280;26652;50.280;19.026;2022-08-03T10:34:51;98728.25;;;27.55;50.57
40920;BME280;26652;50.280;19.026;2022-08-03T10:37:13;98726.19;;;27.52;50.55
40920;BME280;26652;50.280;19.026;2022-08-03T10:39:35;98723.31;;;27.53;50.77
40920;BME280;26652;50.280;19.026;2022-08-03T10:42:12;98727.59;;;27.44;50.78
40920;BME280;26652;50.280;19.026;2022-08-03T10:44:38;98719.75;;;27.44;50.37
40920;BME280;26652;50.280;19.026;2022-08-03T10:46:59;98724.81;;;27.59;50.93
40920;BME280;26652;50.280;19.026;2022-08-03T10:49:19;98722.50;;;27.77;49.94
40920;BME280;26652;50.280;19.026;2022-08-03T10:51:40;98720.59;;;27.82;50.41
40920;BME280;26652;50.280;19.026;2022-08-03T10:54:41;98715.31;;;27.87;48.81
40920;BME280;26652;50.280;19.026;2022-08-03T10:57:02;98722.22;;;27.97;49.25
40920;BME280;26652;50.280;19.026;2022-08-03T10:59:57;98713.75;;;27.86;48.44
40920;BME280;26652;50.280;19.026;2022-08-03T11:02:06;98713.03;;;27.62;48.52
40920;BME280;26652;50.280;19.026;2022-08-03T11:04:34;98714.59;;;27.39;48.56
40920;BME280;26652;50.280;19.026;2022-08-03T11:07:29;98714.03;;;27.42;51.31
40920;BME280;26652;50.280;19.026;2022-08-03T11:09:55;98705.87;;;27.67;50.37
40920;BME280;26652;50.280;19.026;2022-08-03T11:12:28;98705.13;;;27.67;50.59
40920;BME280;26652;50.280;19.026;2022-08-03T11:14:49;98701.44;;;27.68;49.14
40920;BME280;26652;50.280;19.026;2022-08-03T11:17:19;98701.59;;;27.53;48.94
40920;BME280;26652;50.280;19.026;2022-08-03T11:19:51;98693.31;;;27.70;48.39
40920;BME280;26652;50.280;19.026;2022-08-03T11:22:12;98691.88;;;27.77;49.63
40920;BME280;26652;50.280;19.026;2022-08-03T11:27:32;98695.69;;;28.04;47.22
40920;BME280;26652;50.280;19.026;2022-08-03T11:30:07;98694.44;;;28.15;47.13
40920;BME280;26652;50.280;19.026;2022-08-03T11:35:27;98697.09;;;28.47;45.71
40920;BME280;26652;50.280;19.026;2022-08-03T11:38:04;98693.44;;;28.62;46.46
40920;BME280;26652;50.280;19.026;2022-08-03T11:40:43;98689.09;;;28.71;45.65
40920;BME280;26652;50.280;19.026;2022-08-03T11:43:06;98685.66;;;28.57;46.25
40920;BME280;26652;50.280;19.026;2022-08-03T11:45:25;98689.56;;;27.94;47.64
40920;BME280;26652;50.280;19.026;2022-08-03T11:47:48;98683.25;;;27.95;48.71
40920;BME280;26652;50.280;19.026;2022-08-03T11:50:11;98690.53;;;27.98;48.38
40920;BME280;26652;50.280;19.026;2022-08-03T11:52:54;98675.06;;;27.83;48.11
40920;BME280;26652;50.280;19.026;2022-08-03T11:55:10;98681.78;;;27.89;47.92
40920;BME280;26652;50.280;19.026;2022-08-03T11:57:39;98681.06;;;27.65;48.26
40920;BME280;26652;50.280;19.026;2022-08-03T11:59:59;98679.41;;;27.50;48.76
40920;BME280;26652;50.280;19.026;2022-08-03T12:02:31;98672.22;;;27.61;48.57
40920;BME280;26652;50.280;19.026;2022-08-03T12:05:00;98668.63;;;27.76;48.72
40920;BME280;26652;50.280;19.026;2022-08-03T12:07:25;98653.84;;;27.85;48.36
40920;BME280;26652;50.280;19.026;2022-08-03T12:10:13;98667.25;;;27.97;48.08
40920;BME280;26652;50.280;19.026;2022-08-03T12:12:37;98670.97;;;28.10;47.67
40920;BME280;26652;50.280;19.026;2022-08-03T12:14:58;98660.03;;;28.08;47.11
40920;BME280;26652;50.280;19.026;2022-08-03T12:17:20;98661.63;;;28.22;46.80
40920;BME280;26652;50.280;19.026;2022-08-03T12:19:44;98669.31;;;28.32;47.03
40920;BME280;26652;50.280;19.026;2022-08-03T12:22:31;98658.72;;;28.24;46.41
40920;BME280;26652;50.280;19.026;2022-08-03T12:24:44;98666.13;;;28.03;46.45
40920;BME280;26652;50.280;19.026;2022-08-03T12:26:58;98657.16;;;27.72;47.15
40920;BME280;26652;50.280;19.026;2022-08-03T12:29:34;98655.91;;;27.69;46.00
40920;BME280;26652;50.280;19.026;2022-08-03T12:31:44;98662.31;;;27.95;45.95
40920;BME280;26652;50.280;19.026;2022-08-03T12:34:01;98653.78;;;28.22;46.53
40920;BME280;26652;50.280;19.026;2022-08-03T12:36:22;98645.94;;;28.36;46.40
40920;BME280;26652;50.280;19.026;2022-08-03T12:38:58;98650.63;;;28.53;45.63
40920;BME280;26652;50.280;19.026;2022-08-03T12:41:28;98657.06;;;28.60;46.09
40920;BME280;26652;50.280;19.026;2022-08-03T12:43:50;98656.56;;;28.72;45.85
40920;BME280;26652;50.280;19.026;2022-08-03T12:46:11;98648.44;;;28.74;45.85
40920;BME280;26652;50.280;19.026;2022-08-03T12:48:31;98650.50;;;28.90;46.79
40920;BME280;26652;50.280;19.026;2022-08-03T12:51:08;98652.53;;;29.07;46.42
40920;BME280;26652;50.280;19.026;2022-08-03T12:53:41;98651.63;;;28.71;44.98
40920;BME280;26652;50.280;19.026;2022-08-03T12:56:02;98642.44;;;28.87;46.49